PHBK Airport (Barking Sands Pmrf) Information

FAA: BKH - ICAO: PHBK

PHBK Airport Location

State Hawaii
County Kauai
City Kekaha,Kauai
PHBK Airport is 5 miles northwest of Kekaha,Kauai, HI.
Latitude 22-01-21.9730N
Longitude 159-47-06.2260W
Elevation 18ft

PHBK Airport METARs

METAR PHBK 200251Z AUTO 36007KT 330V060 10SM CLR 29/18 A3001 RMK AO2 SLP163 T02890178 56008
Altimeter 30.01"
Temperature 28.9°C (84.0°F)
Wind 360° at 7KT
Clouds Skies are clear.
Visibility 10.0mi
Time observed: 2021-10-20T02:51:00Z

PHBK Airport Details

Status Operational
Activation N/A
Ownership Military - Navy
Usage Private
Chart HAWAIIAN ISLANDS
ATC on-site Yes
Beacon schedule sunset-sunrise
Beacon color split clear green

PHBK Airport Contacts

Owner US NAVY
Owner address OCEANOGRAPHIC OFC - CODE 3142, WASHINGTON, DC 20373
Owner phone N/A
Manager ANTONIO RAMON. BORJA
Manager address PO BOX 235, TINIAN, MP 96952-1055
Manager phone (670) 433-9294

PHBK Airport (Barking Sands Pmrf) Radio Frequencies

PHBK (Airport) Radio Frequencies

UNICOM 122.8
Common traffic advisory frequency (CTAF) N/A